sensor_id;sensor_type;location;lat;lon;timestamp;temperature;humidity
34829;DHT22;21042;47.620;12.188;2023-04-28T00:01:27;8.40;99.90
34829;DHT22;21042;47.620;12.188;2023-04-28T00:03:54;8.40;99.90
34829;DHT22;21042;47.620;12.188;2023-04-28T00:06:22;8.40;99.90
34829;DHT22;21042;47.620;12.188;2023-04-28T00:08:49;8.40;99.90
34829;DHT22;21042;47.620;12.188;2023-04-28T00:11:16;8.30;99.90
34829;DHT22;21042;47.620;12.188;2023-04-28T00:13:42;8.30;99.90
34829;DHT22;21042;47.620;12.188;2023-04-28T00:16:09;8.30;99.90
34829;DHT22;21042;47.620;12.188;2023-04-28T00:18:36;8.20;99.90
34829;DHT22;21042;47.620;12.188;2023-04-28T00:21:02;8.20;99.90
34829;DHT22;21042;47.620;12.188;2023-04-28T00:23:29;8.20;99.90
34829;DHT22;21042;47.620;12.188;2023-04-28T00:25:56;8.10;99.90
34829;DHT22;21042;47.620;12.188;2023-04-28T00:28:23;8.10;99.90
34829;DHT22;21042;47.620;12.188;2023-04-28T00:30:53;8.10;99.90
34829;DHT22;21042;47.620;12.188;2023-04-28T00:33:19;8.00;99.90
34829;DHT22;21042;47.620;12.188;2023-04-28T00:35:46;8.00;99.90
34829;DHT22;21042;47.620;12.188;2023-04-28T00:38:13;8.00;99.90
34829;DHT22;21042;47.620;12.188;2023-04-28T00:40:40;8.00;99.90
34829;DHT22;21042;47.620;12.188;2023-04-28T00:43:07;8.00;99.90
34829;DHT22;21042;47.620;12.188;2023-04-28T00:45:33;8.00;99.90
34829;DHT22;21042;47.620;12.188;2023-04-28T00:48:01;8.00;99.90
34829;DHT22;21042;47.620;12.188;2023-04-28T00:50:28;8.00;99.90
34829;DHT22;21042;47.620;12.188;2023-04-28T00:52:54;7.90;99.90
34829;DHT22;21042;47.620;12.188;2023-04-28T00:55:21;7.90;99.90
34829;DHT22;21042;47.620;12.188;2023-04-28T00:57:50;7.90;99.90
34829;DHT22;21042;47.620;12.188;2023-04-28T01:00:17;7.90;99.90
34829;DHT22;21042;47.620;12.188;2023-04-28T01:02:44;7.80;99.90
34829;DHT22;21042;47.620;12.188;2023-04-28T01:05:11;7.80;99.90
34829;DHT22;21042;47.620;12.188;2023-04-28T01:07:39;7.80;99.90
34829;DHT22;21042;47.620;12.188;2023-04-28T01:10:07;7.80;99.90
34829;DHT22;21042;47.620;12.188;2023-04-28T01:12:34;7.80;99.90
34829;DHT22;21042;47.620;12.188;2023-04-28T01:15:01;7.80;99.90
34829;DHT22;21042;47.620;12.188;2023-04-28T01:17:30;7.80;99.90
34829;DHT22;21042;47.620;12.188;2023-04-28T01:19:58;7.90;99.90
34829;DHT22;21042;47.620;12.188;2023-04-28T01:22:24;7.90;99.90
34829;DHT22;21042;47.620;12.188;2023-04-28T01:24:51;7.90;99.90
34829;DHT22;21042;47.620;12.188;2023-04-28T01:27:18;7.90;99.90
34829;DHT22;21042;47.620;12.188;2023-04-28T01:29:45;7.90;99.90
34829;DHT22;21042;47.620;12.188;2023-04-28T01:32:12;7.90;99.90
34829;DHT22;21042;47.620;12.188;2023-04-28T01:34:38;7.90;99.90
34829;DHT22;21042;47.620;12.188;2023-04-28T01:37:05;7.90;99.90
34829;DHT22;21042;47.620;12.188;2023-04-28T01:39:32;7.90;99.90
34829;DHT22;21042;47.620;12.188;2023-04-28T01:42:02;7.90;99.90
34829;DHT22;21042;47.620;12.188;2023-04-28T01:44:29;7.90;99.90
34829;DHT22;21042;47.620;12.188;2023-04-28T01:46:55;7.90;99.90
34829;DHT22;21042;47.620;12.188;2023-04-28T01:49:22;7.80;99.90
34829;DHT22;21042;47.620;12.188;2023-04-28T01:51:49;7.70;99.90
34829;DHT22;21042;47.620;12.188;2023-04-28T01:54:16;7.70;99.90
34829;DHT22;21042;47.620;12.188;2023-04-28T01:56:43;7.60;99.90
34829;DHT22;21042;47.620;12.188;2023-04-28T01:59:13;7.60;99.90
34829;DHT22;21042;47.620;12.188;2023-04-28T02:01:39;7.70;99.90
34829;DHT22;21042;47.620;12.188;2023-04-28T02:04:06;7.70;99.90
34829;DHT22;21042;47.620;12.188;2023-04-28T02:06:35;7.80;99.90
34829;DHT22;21042;47.620;12.188;2023-04-28T02:09:02;7.80;99.90
34829;DHT22;21042;47.620;12.188;2023-04-28T02:11:29;7.80;99.90
34829;DHT22;21042;47.620;12.188;2023-04-28T02:13:56;7.80;99.90
34829;DHT22;21042;47.620;12.188;2023-04-28T02:16:22;7.80;99.90
34829;DHT22;21042;47.620;12.188;2023-04-28T02:18:49;7.90;99.90
34829;DHT22;21042;47.620;12.188;2023-04-28T02:21:16;8.00;99.90
34829;DHT22;21042;47.620;12.188;2023-04-28T02:23:44;8.10;99.90
34829;DHT22;21042;47.620;12.188;2023-04-28T02:26:11;8.10;99.90
34829;DHT22;21042;47.620;12.188;2023-04-28T02:28:38;8.10;99.90
34829;DHT22;21042;47.620;12.188;2023-04-28T02:31:09;8.20;99.90
34829;DHT22;21042;47.620;12.188;2023-04-28T02:33:37;8.20;99.90
34829;DHT22;21042;47.620;12.188;2023-04-28T02:36:04;8.10;99.90
34829;DHT22;21042;47.620;12.188;2023-04-28T02:38:31;8.10;99.90
34829;DHT22;21042;47.620;12.188;2023-04-28T02:41:06;8.10;99.90
34829;DHT22;21042;47.620;12.188;2023-04-28T02:43:35;8.10;99.90
34829;DHT22;21042;47.620;12.188;2023-04-28T02:46:03;8.10;99.90
34829;DHT22;21042;47.620;12.188;2023-04-28T02:48:30;8.10;99.90
34829;DHT22;21042;47.620;12.188;2023-04-28T02:50:57;8.10;99.90
34829;DHT22;21042;47.620;12.188;2023-04-28T02:53:24;8.00;99.90
34829;DHT22;21042;47.620;12.188;2023-04-28T02:55:51;8.00;99.90
34829;DHT22;21042;47.620;12.188;2023-04-28T02:58:18;8.00;99.90
34829;DHT22;21042;47.620;12.188;2023-04-28T03:00:45;8.00;99.90
34829;DHT22;21042;47.620;12.188;2023-04-28T03:03:13;8.10;99.90
34829;DHT22;21042;47.620;12.188;2023-04-28T03:05:40;8.10;99.90
34829;DHT22;21042;47.620;12.188;2023-04-28T03:08:07;8.20;99.90
34829;DHT22;21042;47.620;12.188;2023-04-28T03:10:34;8.20;99.90
34829;DHT22;21042;47.620;12.188;2023-04-28T03:13:01;8.30;99.90
34829;DHT22;21042;47.620;12.188;2023-04-28T03:15:29;8.30;99.90
34829;DHT22;21042;47.620;12.188;2023-04-28T03:17:56;8.30;99.90
34829;DHT22;21042;47.620;12.188;2023-04-28T03:20:23;8.30;99.90
34829;DHT22;21042;47.620;12.188;2023-04-28T03:22:50;8.30;99.90
34829;DHT22;21042;47.620;12.188;2023-04-28T03:25:17;8.30;99.90
34829;DHT22;21042;47.620;12.188;2023-04-28T03:27:50;8.30;99.90
34829;DHT22;21042;47.620;12.188;2023-04-28T03:30:16;8.30;99.90
34829;DHT22;21042;47.620;12.188;2023-04-28T03:32:44;8.30;99.90
34829;DHT22;21042;47.620;12.188;2023-04-28T03:35:11;8.30;99.90
34829;DHT22;21042;47.620;12.188;2023-04-28T03:37:39;8.30;99.90
34829;DHT22;21042;47.620;12.188;2023-04-28T03:40:07;8.30;99.90
34829;DHT22;21042;47.620;12.188;2023-04-28T03:42:53;8.20;99.90
34829;DHT22;21042;47.620;12.188;2023-04-28T03:45:27;8.20;99.90
34829;DHT22;21042;47.620;12.188;2023-04-28T03:47:54;8.20;99.90
34829;DHT22;21042;47.620;12.188;2023-04-28T03:50:21;8.20;99.90
34829;DHT22;21042;47.620;12.188;2023-04-28T03:52:50;8.20;99.90
34829;DHT22;21042;47.620;12.188;2023-04-28T03:55:17;8.20;99.90
34829;DHT22;21042;47.620;12.188;2023-04-28T03:57:43;8.20;99.90
34829;DHT22;21042;47.620;12.188;2023-04-28T04:00:11;8.20;99.90
34829;DHT22;21042;47.620;12.188;2023-04-28T04:02:40;8.10;99.90
34829;DHT22;21042;47.620;12.188;2023-04-28T04:05:08;8.10;99.90
34829;DHT22;21042;47.620;12.188;2023-04-28T04:07:35;8.10;99.90
34829;DHT22;21042;47.620;12.188;2023-04-28T04:10:02;8.10;99.90
34829;DHT22;21042;47.620;12.188;2023-04-28T04:12:32;8.10;99.90
34829;DHT22;21042;47.620;12.188;2023-04-28T04:14:59;8.10;99.90
34829;DHT22;21042;47.620;12.188;2023-04-28T04:17:26;8.10;99.90
34829;DHT22;21042;47.620;12.188;2023-04-28T04:19:53;8.20;99.90
34829;DHT22;21042;47.620;12.188;2023-04-28T04:22:19;8.20;99.90
34829;DHT22;21042;47.620;12.188;2023-04-28T04:24:46;8.20;99.90
34829;DHT22;21042;47.620;12.188;2023-04-28T04:27:13;8.20;99.90
34829;DHT22;21042;47.620;12.188;2023-04-28T04:29:40;8.30;99.90
34829;DHT22;21042;47.620;12.188;2023-04-28T04:32:11;8.30;99.90
34829;DHT22;21042;47.620;12.188;2023-04-28T04:34:39;8.20;99.90
34829;DHT22;21042;47.620;12.188;2023-04-28T04:37:06;8.20;99.90
34829;DHT22;21042;47.620;12.188;2023-04-28T04:39:37;8.30;99.90
34829;DHT22;21042;47.620;12.188;2023-04-28T04:42:04;8.20;99.90
34829;DHT22;21042;47.620;12.188;2023-04-28T04:45:11;8.20;99.90
34829;DHT22;21042;47.620;12.188;2023-04-28T04:47:39;8.20;99.90
34829;DHT22;21042;47.620;12.188;2023-04-28T04:50:06;8.20;99.90
34829;DHT22;21042;47.620;12.188;2023-04-28T04:52:33;8.30;99.90
34829;DHT22;21042;47.620;12.188;2023-04-28T04:55:01;8.20;99.90
34829;DHT22;21042;47.620;12.188;2023-04-28T04:57:28;8.20;99.90
34829;DHT22;21042;47.620;12.188;2023-04-28T05:00:08;8.20;99.90
34829;DHT22;21042;47.620;12.188;2023-04-28T05:02:36;8.30;99.90
34829;DHT22;21042;47.620;12.188;2023-04-28T05:05:04;8.30;99.90
34829;DHT22;21042;47.620;12.188;2023-04-28T05:07:50;8.30;99.90
34829;DHT22;21042;47.620;12.188;2023-04-28T05:10:17;8.40;99.90
34829;DHT22;21042;47.620;12.188;2023-04-28T05:12:44;8.40;99.90
34829;DHT22;21042;47.620;12.188;2023-04-28T05:15:16;8.40;99.90
34829;DHT22;21042;47.620;12.188;2023-04-28T05:17:54;8.40;99.90
34829;DHT22;21042;47.620;12.188;2023-04-28T05:20:22;8.50;99.90
34829;DHT22;21042;47.620;12.188;2023-04-28T05:22:49;8.50;99.90
34829;DHT22;21042;47.620;12.188;2023-04-28T05:25:16;8.50;99.90
34829;DHT22;21042;47.620;12.188;2023-04-28T05:27:43;8.50;99.90
34829;DHT22;21042;47.620;12.188;2023-04-28T05:30:10;8.60;99.90
34829;DHT22;21042;47.620;12.188;2023-04-28T05:32:37;8.60;99.90
34829;DHT22;21042;47.620;12.188;2023-04-28T05:35:05;8.50;99.90
34829;DHT22;21042;47.620;12.188;2023-04-28T05:37:32;8.50;99.90
34829;DHT22;21042;47.620;12.188;2023-04-28T05:39:59;8.40;99.90
34829;DHT22;21042;47.620;12.188;2023-04-28T05:42:26;8.40;99.90
34829;DHT22;21042;47.620;12.188;2023-04-28T05:44:53;8.40;99.90
34829;DHT22;21042;47.620;12.188;2023-04-28T05:47:20;8.40;99.90
34829;DHT22;21042;47.620;12.188;2023-04-28T05:49:47;8.50;99.90
34829;DHT22;21042;47.620;12.188;2023-04-28T05:52:13;8.60;99.90
34829;DHT22;21042;47.620;12.188;2023-04-28T05:54:40;8.70;99.90
34829;DHT22;21042;47.620;12.188;2023-04-28T05:57:07;8.80;99.90
34829;DHT22;21042;47.620;12.188;2023-04-28T05:59:34;8.80;99.90
34829;DHT22;21042;47.620;12.188;2023-04-28T06:02:01;9.60;99.90
34829;DHT22;21042;47.620;12.188;2023-04-28T06:04:28;9.00;99.90
34829;DHT22;21042;47.620;12.188;2023-04-28T06:06:56;9.00;99.90
34829;DHT22;21042;47.620;12.188;2023-04-28T06:09:23;9.10;99.90
34829;DHT22;21042;47.620;12.188;2023-04-28T06:11:51;9.20;99.90
34829;DHT22;21042;47.620;12.188;2023-04-28T06:14:18;9.20;99.90
34829;DHT22;21042;47.620;12.188;2023-04-28T06:16:46;9.20;99.90
34829;DHT22;21042;47.620;12.188;2023-04-28T06:19:13;9.30;99.90
34829;DHT22;21042;47.620;12.188;2023-04-28T06:21:40;9.30;99.90
34829;DHT22;21042;47.620;12.188;2023-04-28T06:24:07;9.30;99.90
34829;DHT22;21042;47.620;12.188;2023-04-28T06:26:34;9.40;99.90
34829;DHT22;21042;47.620;12.188;2023-04-28T06:29:01;9.40;99.90
34829;DHT22;21042;47.620;12.188;2023-04-28T06:31:29;9.50;99.90
34829;DHT22;21042;47.620;12.188;2023-04-28T06:33:56;9.60;99.90
34829;DHT22;21042;47.620;12.188;2023-04-28T06:36:23;9.70;99.90
34829;DHT22;21042;47.620;12.188;2023-04-28T06:38:49;9.90;99.90
34829;DHT22;21042;47.620;12.188;2023-04-28T06:41:16;10.00;99.90
34829;DHT22;21042;47.620;12.188;2023-04-28T06:43:47;10.10;99.90
34829;DHT22;21042;47.620;12.188;2023-04-28T06:46:20;10.20;99.90
34829;DHT22;21042;47.620;12.188;2023-04-28T06:48:47;10.30;99.90
34829;DHT22;21042;47.620;12.188;2023-04-28T06:51:15;10.40;99.90
34829;DHT22;21042;47.620;12.188;2023-04-28T06:53:42;10.40;99.90
34829;DHT22;21042;47.620;12.188;2023-04-28T06:56:09;10.50;99.90
34829;DHT22;21042;47.620;12.188;2023-04-28T06:58:37;10.60;99.90
34829;DHT22;21042;47.620;12.188;2023-04-28T07:01:04;10.60;99.90
34829;DHT22;21042;47.620;12.188;2023-04-28T07:03:31;10.70;99.90
34829;DHT22;21042;47.620;12.188;2023-04-28T07:05:58;10.80;99.90
34829;DHT22;21042;47.620;12.188;2023-04-28T07:08:25;10.90;99.90
34829;DHT22;21042;47.620;12.188;2023-04-28T07:10:52;10.90;99.90
34829;DHT22;21042;47.620;12.188;2023-04-28T07:13:18;10.80;99.90
34829;DHT22;21042;47.620;12.188;2023-04-28T07:15:45;10.80;99.90
34829;DHT22;21042;47.620;12.188;2023-04-28T07:18:12;10.60;99.90
34829;DHT22;21042;47.620;12.188;2023-04-28T07:20:39;10.60;99.90
34829;DHT22;21042;47.620;12.188;2023-04-28T07:23:06;10.70;99.90
34829;DHT22;21042;47.620;12.188;2023-04-28T07:25:32;10.70;99.90
34829;DHT22;21042;47.620;12.188;2023-04-28T07:28:02;10.70;99.90
34829;DHT22;21042;47.620;12.188;2023-04-28T07:30:29;10.50;99.90
34829;DHT22;21042;47.620;12.188;2023-04-28T07:32:55;10.50;99.90
34829;DHT22;21042;47.620;12.188;2023-04-28T07:35:23;10.40;99.90
34829;DHT22;21042;47.620;12.188;2023-04-28T07:37:50;10.30;99.90
34829;DHT22;21042;47.620;12.188;2023-04-28T07:40:17;10.20;99.90
34829;DHT22;21042;47.620;12.188;2023-04-28T07:42:44;10.20;99.90
34829;DHT22;21042;47.620;12.188;2023-04-28T07:45:11;10.20;99.90
34829;DHT22;21042;47.620;12.188;2023-04-28T07:47:38;10.20;99.90
34829;DHT22;21042;47.620;12.188;2023-04-28T07:50:05;10.30;99.90
34829;DHT22;21042;47.620;12.188;2023-04-28T07:52:32;10.40;99.90
34829;DHT22;21042;47.620;12.188;2023-04-28T07:54:59;10.50;99.90
34829;DHT22;21042;47.620;12.188;2023-04-28T07:57:27;10.70;99.90
34829;DHT22;21042;47.620;12.188;2023-04-28T07:59:55;10.90;99.90
34829;DHT22;21042;47.620;12.188;2023-04-28T08:02:21;11.00;99.90
34829;DHT22;21042;47.620;12.188;2023-04-28T08:04:48;11.00;99.90
34829;DHT22;21042;47.620;12.188;2023-04-28T08:07:15;11.00;99.90
34829;DHT22;21042;47.620;12.188;2023-04-28T08:09:42;11.10;99.90
34829;DHT22;21042;47.620;12.188;2023-04-28T08:12:13;11.10;99.90
34829;DHT22;21042;47.620;12.188;2023-04-28T08:14:40;11.20;99.90
34829;DHT22;21042;47.620;12.188;2023-04-28T08:17:07;11.30;99.90
34829;DHT22;21042;47.620;12.188;2023-04-28T08:19:34;11.40;99.90
34829;DHT22;21042;47.620;12.188;2023-04-28T08:22:00;11.50;99.90
34829;DHT22;21042;47.620;12.188;2023-04-28T08:24:31;11.50;99.90
34829;DHT22;21042;47.620;12.188;2023-04-28T08:27:00;11.50;99.90
34829;DHT22;21042;47.620;12.188;2023-04-28T08:29:32;11.40;99.90
34829;DHT22;21042;47.620;12.188;2023-04-28T08:31:58;11.30;99.90
34829;DHT22;21042;47.620;12.188;2023-04-28T08:34:26;11.20;99.90
34829;DHT22;21042;47.620;12.188;2023-04-28T08:36:53;11.10;99.90
34829;DHT22;21042;47.620;12.188;2023-04-28T08:39:20;11.10;99.90
34829;DHT22;21042;47.620;12.188;2023-04-28T08:41:49;11.10;99.90
34829;DHT22;21042;47.620;12.188;2023-04-28T08:44:16;11.00;99.90
34829;DHT22;21042;47.620;12.188;2023-04-28T08:46:45;11.00;99.90
34829;DHT22;21042;47.620;12.188;2023-04-28T08:49:16;11.10;99.90
34829;DHT22;21042;47.620;12.188;2023-04-28T08:51:55;11.00;99.90
34829;DHT22;21042;47.620;12.188;2023-04-28T08:54:30;11.00;99.90
34829;DHT22;21042;47.620;12.188;2023-04-28T08:56:58;10.90;99.90
34829;DHT22;21042;47.620;12.188;2023-04-28T08:59:25;10.90;99.90
34829;DHT22;21042;47.620;12.188;2023-04-28T09:01:52;10.90;99.90
34829;DHT22;21042;47.620;12.188;2023-04-28T09:04:19;10.90;99.90
34829;DHT22;21042;47.620;12.188;2023-04-28T09:06:47;10.90;99.90
34829;DHT22;21042;47.620;12.188;2023-04-28T09:09:18;10.90;99.90
34829;DHT22;21042;47.620;12.188;2023-04-28T09:11:56;10.90;99.90
34829;DHT22;21042;47.620;12.188;2023-04-28T09:14:27;10.90;99.90
34829;DHT22;21042;47.620;12.188;2023-04-28T09:16:55;11.00;99.90
34829;DHT22;21042;47.620;12.188;2023-04-28T09:19:22;11.00;99.90
34829;DHT22;21042;47.620;12.188;2023-04-28T09:21:54;11.00;99.90
34829;DHT22;21042;47.620;12.188;2023-04-28T09:24:40;11.10;99.90
34829;DHT22;21042;47.620;12.188;2023-04-28T09:27:10;11.00;99.90
34829;DHT22;21042;47.620;12.188;2023-04-28T09:29:38;11.10;99.90
34829;DHT22;21042;47.620;12.188;2023-04-28T09:32:21;11.10;99.90
34829;DHT22;21042;47.620;12.188;2023-04-28T09:34:52;11.00;99.90
34829;DHT22;21042;47.620;12.188;2023-04-28T09:37:23;11.00;99.90
34829;DHT22;21042;47.620;12.188;2023-04-28T09:39:52;10.90;99.90
34829;DHT22;21042;47.620;12.188;2023-04-28T09:42:42;10.90;99.90
34829;DHT22;21042;47.620;12.188;2023-04-28T09:45:10;10.90;99.90
34829;DHT22;21042;47.620;12.188;2023-04-28T09:47:41;10.90;99.90
34829;DHT22;21042;47.620;12.188;2023-04-28T09:50:10;10.90;99.90
34829;DHT22;21042;47.620;12.188;2023-04-28T09:52:40;10.80;99.90
34829;DHT22;21042;47.620;12.188;2023-04-28T09:55:08;10.80;99.90
34829;DHT22;21042;47.620;12.188;2023-04-28T09:57:35;10.80;99.90
34829;DHT22;21042;47.620;12.188;2023-04-28T10:00:02;10.80;99.90
34829;DHT22;21042;47.620;12.188;2023-04-28T10:02:34;10.80;99.90
34829;DHT22;21042;47.620;12.188;2023-04-28T10:05:04;10.80;99.90
34829;DHT22;21042;47.620;12.188;2023-04-28T10:07:34;10.80;99.90
34829;DHT22;21042;47.620;12.188;2023-04-28T10:10:02;10.70;99.90
34829;DHT22;21042;47.620;12.188;2023-04-28T10:12:31;10.60;99.90
34829;DHT22;21042;47.620;12.188;2023-04-28T10:14:58;10.60;99.90
34829;DHT22;21042;47.620;12.188;2023-04-28T10:17:25;10.50;99.90
34829;DHT22;21042;47.620;12.188;2023-04-28T10:19:55;10.50;99.90
34829;DHT22;21042;47.620;12.188;2023-04-28T10:27:42;10.50;99.90
34829;DHT22;21042;47.620;12.188;2023-04-28T10:30:20;10.50;99.90
34829;DHT22;21042;47.620;12.188;2023-04-28T10:35:41;10.60;99.90
34829;DHT22;21042;47.620;12.188;2023-04-28T10:40:41;10.60;99.90
34829;DHT22;21042;47.620;12.188;2023-04-28T10:43:13;10.60;99.90
34829;DHT22;21042;47.620;12.188;2023-04-28T10:58:45;10.60;99.90
34829;DHT22;21042;47.620;12.188;2023-04-28T11:03:54;10.60;99.90
34829;DHT22;21042;47.620;12.188;2023-04-28T11:06:41;10.60;99.90
34829;DHT22;21042;47.620;12.188;2023-04-28T11:17:03;10.60;99.90
34829;DHT22;21042;47.620;12.188;2023-04-28T11:19:38;10.60;99.90
34829;DHT22;21042;47.620;12.188;2023-04-28T11:22:15;10.60;99.90
34829;DHT22;21042;47.620;12.188;2023-04-28T11:25:01;10.60;99.90
34829;DHT22;21042;47.620;12.188;2023-04-28T11:27:31;10.70;99.90
34829;DHT22;21042;47.620;12.188;2023-04-28T11:29:58;10.70;99.90
34829;DHT22;21042;47.620;12.188;2023-04-28T11:32:33;10.70;99.90
34829;DHT22;21042;47.620;12.188;2023-04-28T11:35:00;10.70;99.90
34829;DHT22;21042;47.620;12.188;2023-04-28T11:37:27;10.80;99.90
34829;DHT22;21042;47.620;12.188;2023-04-28T11:39:54;10.80;99.90
34829;DHT22;21042;47.620;12.188;2023-04-28T11:42:20;10.90;99.90
34829;DHT22;21042;47.620;12.188;2023-04-28T11:44:51;10.80;99.90
34829;DHT22;21042;47.620;12.188;2023-04-28T11:47:29;10.70;99.90
34829;DHT22;21042;47.620;12.188;2023-04-28T11:49:57;10.80;99.90
34829;DHT22;21042;47.620;12.188;2023-04-28T11:52:24;10.80;99.90
34829;DHT22;21042;47.620;12.188;2023-04-28T11:54:54;10.80;99.90
34829;DHT22;21042;47.620;12.188;2023-04-28T11:57:21;10.80;99.90
34829;DHT22;21042;47.620;12.188;2023-04-28T11:59:49;10.80;99.90
34829;DHT22;21042;47.620;12.188;2023-04-28T12:02:24;10.70;99.90
34829;DHT22;21042;47.620;12.188;2023-04-28T12:04:53;10.80;99.90
34829;DHT22;21042;47.620;12.188;2023-04-28T12:07:20;10.80;99.90
34829;DHT22;21042;47.620;12.188;2023-04-28T12:10:13;10.80;99.90
34829;DHT22;21042;47.620;12.188;2023-04-28T12:12:44;10.70;99.90
34829;DHT22;21042;47.620;12.188;2023-04-28T12:15:18;10.70;99.90
34829;DHT22;21042;47.620;12.188;2023-04-28T12:17:47;10.70;99.90
34829;DHT22;21042;47.620;12.188;2023-04-28T12:20:41;10.80;99.90
34829;DHT22;21042;47.620;12.188;2023-04-28T12:23:09;10.80;99.90
34829;DHT22;21042;47.620;12.188;2023-04-28T12:25:43;10.80;99.90
34829;DHT22;21042;47.620;12.188;2023-04-28T12:28:10;10.80;99.90
34829;DHT22;21042;47.620;12.188;2023-04-28T12:30:37;10.80;99.90
34829;DHT22;21042;47.620;12.188;2023-04-28T12:33:24;10.90;99.90
34829;DHT22;21042;47.620;12.188;2023-04-28T12:35:52;10.80;99.90
34829;DHT22;21042;47.620;12.188;2023-04-28T12:38:21;10.80;99.90
34829;DHT22;21042;47.620;12.188;2023-04-28T12:40:48;10.80;99.90
34829;DHT22;21042;47.620;12.188;2023-04-28T12:43:14;10.80;99.90
34829;DHT22;21042;47.620;12.188;2023-04-28T12:45:41;10.80;99.90
34829;DHT22;21042;47.620;12.188;2023-04-28T12:48:08;10.90;99.90
34829;DHT22;21042;47.620;12.188;2023-04-28T12:50:35;10.90;99.90
34829;DHT22;21042;47.620;12.188;2023-04-28T12:53:02;10.90;99.90
34829;DHT22;21042;47.620;12.188;2023-04-28T12:55:29;10.90;99.90
34829;DHT22;21042;47.620;12.188;2023-04-28T12:57:56;10.90;99.90
34829;DHT22;21042;47.620;12.188;2023-04-28T13:00:22;10.90;99.90
34829;DHT22;21042;47.620;12.188;2023-04-28T13:02:50;11.00;99.90
34829;DHT22;21042;47.620;12.188;2023-04-28T13:05:18;11.00;99.90
34829;DHT22;21042;47.620;12.188;2023-04-28T13:07:45;11.00;99.90
34829;DHT22;21042;47.620;12.188;2023-04-28T13:10:12;11.00;99.90
34829;DHT22;21042;47.620;12.188;2023-04-28T13:12:39;11.00;99.90
34829;DHT22;21042;47.620;12.188;2023-04-28T13:15:06;11.00;99.90
34829;DHT22;21042;47.620;12.188;2023-04-28T13:17:33;11.00;99.90
34829;DHT22;21042;47.620;12.188;2023-04-28T13:20:01;11.00;99.90
34829;DHT22;21042;47.620;12.188;2023-04-28T13:22:29;11.00;99.90
34829;DHT22;21042;47.620;12.188;2023-04-28T13:24:56;11.00;99.90
34829;DHT22;21042;47.620;12.188;2023-04-28T13:27:23;10.90;99.90
34829;DHT22;21042;47.620;12.188;2023-04-28T13:29:49;10.90;99.90
34829;DHT22;21042;47.620;12.188;2023-04-28T13:32:16;11.00;99.90
34829;DHT22;21042;47.620;12.188;2023-04-28T13:34:43;10.90;99.90
34829;DHT22;21042;47.620;12.188;2023-04-28T13:37:10;10.80;99.90
34829;DHT22;21042;47.620;12.188;2023-04-28T13:39:37;10.90;99.90
34829;DHT22;21042;47.620;12.188;2023-04-28T13:42:04;10.80;99.90
34829;DHT22;21042;47.620;12.188;2023-04-28T13:44:32;10.90;99.90
34829;DHT22;21042;47.620;12.188;2023-04-28T13:46:59;10.90;99.90
34829;DHT22;21042;47.620;12.188;2023-04-28T13:49:26;10.90;99.90
34829;DHT22;21042;47.620;12.188;2023-04-28T13:51:53;11.10;99.90
34829;DHT22;21042;47.620;12.188;2023-04-28T13:54:20;10.90;99.90
34829;DHT22;21042;47.620;12.188;2023-04-28T13:56:47;10.80;99.90
34829;DHT22;21042;47.620;12.188;2023-04-28T13:59:14;10.50;99.90
34829;DHT22;21042;47.620;12.188;2023-04-28T14:01:40;10.90;99.90
34829;DHT22;21042;47.620;12.188;2023-04-28T14:04:07;11.00;99.90
34829;DHT22;21042;47.620;12.188;2023-04-28T14:06:34;11.10;99.90
34829;DHT22;21042;47.620;12.188;2023-04-28T14:09:01;11.10;99.90
34829;DHT22;21042;47.620;12.188;2023-04-28T14:11:29;11.20;99.90
34829;DHT22;21042;47.620;12.188;2023-04-28T14:13:55;11.20;99.90
34829;DHT22;21042;47.620;12.188;2023-04-28T14:16:22;11.30;99.90
34829;DHT22;21042;47.620;12.188;2023-04-28T14:18:49;11.20;99.90
34829;DHT22;21042;47.620;12.188;2023-04-28T14:21:16;11.40;99.90
34829;DHT22;21042;47.620;12.188;2023-04-28T14:23:43;11.40;99.90
34829;DHT22;21042;47.620;12.188;2023-04-28T14:26:10;11.40;99.90
34829;DHT22;21042;47.620;12.188;2023-04-28T14:28:36;11.50;99.90
34829;DHT22;21042;47.620;12.188;2023-04-28T14:31:04;11.50;99.90
34829;DHT22;21042;47.620;12.188;2023-04-28T14:33:34;11.50;99.90
34829;DHT22;21042;47.620;12.188;2023-04-28T14:36:02;11.40;99.90
34829;DHT22;21042;47.620;12.188;2023-04-28T14:38:29;11.50;99.90
34829;DHT22;21042;47.620;12.188;2023-04-28T14:40:56;11.40;99.90
34829;DHT22;21042;47.620;12.188;2023-04-28T14:43:23;11.40;99.90
34829;DHT22;21042;47.620;12.188;2023-04-28T14:45:50;11.30;99.90
34829;DHT22;21042;47.620;12.188;2023-04-28T14:48:17;11.30;99.90
34829;DHT22;21042;47.620;12.188;2023-04-28T14:50:44;11.40;99.90
34829;DHT22;21042;47.620;12.188;2023-04-28T14:53:11;11.50;99.90
34829;DHT22;21042;47.620;12.188;2023-04-28T14:55:38;11.50;99.90
34829;DHT22;21042;47.620;12.188;2023-04-28T14:58:05;11.50;99.90
34829;DHT22;21042;47.620;12.188;2023-04-28T15:00:31;11.50;99.90
34829;DHT22;21042;47.620;12.188;2023-04-28T15:02:58;11.50;99.90
34829;DHT22;21042;47.620;12.188;2023-04-28T15:05:25;11.60;99.90
34829;DHT22;21042;47.620;12.188;2023-04-28T15:07:52;11.50;99.90
34829;DHT22;21042;47.620;12.188;2023-04-28T15:10:19;11.40;99.90
34829;DHT22;21042;47.620;12.188;2023-04-28T15:12:46;11.40;99.90
34829;DHT22;21042;47.620;12.188;2023-04-28T15:15:14;11.40;99.90
34829;DHT22;21042;47.620;12.188;2023-04-28T15:17:41;11.40;99.90
34829;DHT22;21042;47.620;12.188;2023-04-28T15:20:08;11.50;99.90
34829;DHT22;21042;47.620;12.188;2023-04-28T15:22:35;11.50;99.90
34829;DHT22;21042;47.620;12.188;2023-04-28T15:25:03;11.50;99.90
34829;DHT22;21042;47.620;12.188;2023-04-28T15:27:29;11.50;99.90
34829;DHT22;21042;47.620;12.188;2023-04-28T15:29:56;11.50;99.90
34829;DHT22;21042;47.620;12.188;2023-04-28T15:32:23;11.50;99.90
34829;DHT22;21042;47.620;12.188;2023-04-28T15:34:50;11.50;99.90
34829;DHT22;21042;47.620;12.188;2023-04-28T15:40:10;11.50;99.90
34829;DHT22;21042;47.620;12.188;2023-04-28T15:42:37;11.60;99.90
34829;DHT22;21042;47.620;12.188;2023-04-28T15:45:05;11.60;99.90
34829;DHT22;21042;47.620;12.188;2023-04-28T15:47:32;11.40;99.90
34829;DHT22;21042;47.620;12.188;2023-04-28T15:49:59;11.40;99.90
34829;DHT22;21042;47.620;12.188;2023-04-28T15:52:26;11.40;99.90
34829;DHT22;21042;47.620;12.188;2023-04-28T15:54:54;11.40;99.90
34829;DHT22;21042;47.620;12.188;2023-04-28T15:57:21;11.40;99.90
34829;DHT22;21042;47.620;12.188;2023-04-28T15:59:48;11.40;99.90
34829;DHT22;21042;47.620;12.188;2023-04-28T16:02:17;11.40;99.90
34829;DHT22;21042;47.620;12.188;2023-04-28T16:04:44;11.40;99.90
34829;DHT22;21042;47.620;12.188;2023-04-28T16:07:12;11.40;99.90